createdAt,value
2018-08-13T00:00:56.961Z,20.06
2018-08-13T00:03:25.497Z,20.03
2018-08-13T00:05:53.988Z,19.99
2018-08-13T00:08:22.590Z,20.02
2018-08-13T00:10:51.078Z,19.96
2018-08-13T00:13:20.141Z,19.93
2018-08-13T00:15:48.665Z,19.90
2018-08-13T00:18:17.197Z,19.89
2018-08-13T00:20:45.677Z,19.82
2018-08-13T00:23:14.161Z,19.81
2018-08-13T00:25:42.645Z,19.93
2018-08-13T00:28:11.481Z,20.21
2018-08-13T00:30:40.507Z,20.51
2018-08-13T00:33:10.597Z,20.65
2018-08-13T00:35:39.425Z,20.61
2018-08-13T00:38:08.265Z,20.51
2018-08-13T00:40:36.965Z,20.46
2018-08-13T00:43:06.177Z,20.26
2018-08-13T00:45:34.598Z,20.14
2018-08-13T00:48:03.077Z,20.01
2018-08-13T00:50:31.590Z,20.01
2018-08-13T00:53:00.010Z,20.09
2018-08-13T00:55:28.525Z,20.18
2018-08-13T00:57:56.973Z,20.15
2018-08-13T01:00:25.556Z,20.15
2018-08-13T01:02:54.103Z,20.05
2018-08-13T01:05:22.786Z,20.03
2018-08-13T01:07:51.205Z,20.55
2018-08-13T01:10:21.526Z,20.82
2018-08-13T01:12:50.081Z,20.75
2018-08-13T01:15:19.601Z,20.52
2018-08-13T01:17:49.325Z,20.26
2018-08-13T01:20:19.305Z,20.27
2018-08-13T01:22:47.837Z,20.41
2018-08-13T01:25:19.573Z,20.51
2018-08-13T01:27:48.190Z,20.33
2018-08-13T01:30:18.061Z,20.08
2018-08-13T01:32:46.673Z,19.87
2018-08-13T01:35:15.193Z,19.70
2018-08-13T01:37:43.980Z,19.61
2018-08-13T01:40:12.964Z,19.51
2018-08-13T01:42:41.529Z,19.46
2018-08-13T01:45:11.756Z,19.42
2018-08-13T01:47:41.169Z,19.33
2018-08-13T01:50:10.976Z,19.40
2018-08-13T01:52:39.529Z,19.46
2018-08-13T01:55:09.378Z,19.41
2018-08-13T01:57:37.888Z,19.38
2018-08-13T02:00:15.825Z,19.40
2018-08-13T02:02:44.289Z,19.43
2018-08-13T02:05:12.811Z,19.37
2018-08-13T02:07:41.383Z,19.34
2018-08-13T02:10:11.798Z,19.26
2018-08-13T02:12:40.602Z,19.17
2018-08-13T02:15:09.150Z,19.12
2018-08-13T02:17:37.700Z,19.08
2018-08-13T02:20:07.501Z,19.05
2018-08-13T02:22:36.393Z,19.02
2018-08-13T02:25:06.313Z,19.06
2018-08-13T02:27:34.849Z,19.04
2018-08-13T02:30:03.573Z,19.01
2018-08-13T02:32:32.057Z,18.94
2018-08-13T02:35:00.606Z,18.88
2018-08-13T02:37:29.161Z,18.89
2018-08-13T02:39:57.598Z,18.90
2018-08-13T02:42:26.091Z,18.91
2018-08-13T02:44:54.618Z,18.92
2018-08-13T02:47:23.158Z,18.91
2018-08-13T02:49:51.654Z,18.90
2018-08-13T02:52:20.130Z,18.91
2018-08-13T02:54:48.639Z,18.96
2018-08-13T02:57:17.110Z,19.03
2018-08-13T02:59:45.607Z,19.07
2018-08-13T03:02:14.025Z,19.12
2018-08-13T03:04:42.635Z,19.09
2018-08-13T03:07:11.097Z,19.06
2018-08-13T03:09:39.493Z,18.94
2018-08-13T03:12:08.030Z,18.87
2018-08-13T03:14:36.610Z,18.82
2018-08-13T03:17:05.186Z,18.83
2018-08-13T03:19:33.631Z,18.80
2018-08-13T03:22:02.133Z,18.79
2018-08-13T03:24:30.577Z,18.76
2018-08-13T03:26:59.029Z,18.67
2018-08-13T03:29:27.526Z,18.67
2018-08-13T03:31:56.006Z,18.63
2018-08-13T03:34:24.513Z,18.60
2018-08-13T03:36:53.018Z,18.60
2018-08-13T03:39:21.529Z,18.56
2018-08-13T03:41:50.053Z,18.51
2018-08-13T03:44:18.969Z,18.54
2018-08-13T03:46:47.421Z,18.53
2018-08-13T03:49:15.939Z,18.61
2018-08-13T03:51:44.402Z,18.61
2018-08-13T03:54:12.892Z,18.59
2018-08-13T03:56:41.334Z,18.57
2018-08-13T03:59:09.753Z,18.49
2018-08-13T04:01:38.263Z,18.46
2018-08-13T04:04:07.009Z,18.44
2018-08-13T04:06:35.465Z,18.44
2018-08-13T04:09:04.779Z,18.41
2018-08-13T04:11:33.269Z,18.43
2018-08-13T04:14:01.753Z,18.56
2018-08-13T04:16:30.302Z,18.76
2018-08-13T04:18:58.824Z,18.86
2018-08-13T04:21:27.238Z,18.95
2018-08-13T04:23:55.748Z,19.06
2018-08-13T04:26:24.361Z,19.21
2018-08-13T04:28:52.891Z,19.31
2018-08-13T04:31:21.474Z,19.43
2018-08-13T04:33:49.925Z,19.56
2018-08-13T04:36:18.802Z,19.67
2018-08-13T04:38:47.390Z,19.76
2018-08-13T04:43:37.397Z,19.88
2018-08-13T04:46:05.894Z,19.89
2018-08-13T04:48:34.337Z,19.92
2018-08-13T04:51:02.897Z,19.95
2018-08-13T04:53:31.412Z,19.99
2018-08-13T04:55:59.889Z,19.98
2018-08-13T04:58:28.389Z,19.95
2018-08-13T05:00:56.889Z,19.94
2018-08-13T05:03:25.317Z,19.98
2018-08-13T05:05:53.850Z,19.97
2018-08-13T05:08:22.349Z,20.03
2018-08-13T05:10:50.877Z,20.06
2018-08-13T05:13:20.030Z,20.12
2018-08-13T05:15:48.525Z,19.95
2018-08-13T05:18:17.081Z,19.40
2018-08-13T05:20:45.577Z,19.06
2018-08-13T05:23:14.058Z,18.76
2018-08-13T05:25:42.540Z,18.88
2018-08-13T05:28:11.156Z,18.79
2018-08-13T05:30:39.661Z,18.67
2018-08-13T05:33:08.168Z,18.65
2018-08-13T05:35:36.646Z,18.82
2018-08-13T05:38:05.107Z,19.10
2018-08-13T05:40:33.640Z,19.56
2018-08-13T05:43:02.068Z,19.74
2018-08-13T05:45:30.589Z,19.96
2018-08-13T05:47:59.182Z,20.01
2018-08-13T05:50:27.669Z,20.08
2018-08-13T05:52:56.211Z,20.22
2018-08-13T05:55:24.622Z,20.28
2018-08-13T05:57:53.106Z,20.38
2018-08-13T06:00:21.691Z,20.46
2018-08-13T06:02:50.129Z,20.59
2018-08-13T06:05:18.646Z,20.76
2018-08-13T06:07:47.113Z,20.93
2018-08-13T06:10:15.555Z,20.93
2018-08-13T06:12:44.125Z,20.86
2018-08-13T06:15:13.718Z,20.87
2018-08-13T06:17:42.222Z,20.88
2018-08-13T06:20:12.247Z,20.86
2018-08-13T06:22:42.189Z,20.83
2018-08-13T06:25:11.525Z,20.82
2018-08-13T06:27:40.453Z,20.81
2018-08-13T06:30:12.747Z,20.75
2018-08-13T06:32:41.917Z,20.65
2018-08-13T06:35:10.980Z,20.55
2018-08-13T06:37:39.697Z,20.41
2018-08-13T06:40:08.922Z,20.40
2018-08-13T06:42:37.789Z,20.40
2018-08-13T06:45:07.170Z,20.40
2018-08-13T06:47:35.761Z,20.41
2018-08-13T06:50:05.590Z,20.44
2018-08-13T06:52:34.093Z,20.39
2018-08-13T06:55:02.589Z,20.32
2018-08-13T06:57:31.073Z,20.33
2018-08-13T06:59:59.556Z,20.38
2018-08-13T07:02:28.044Z,20.42
2018-08-13T07:04:56.679Z,20.48
2018-08-13T07:07:25.305Z,20.60
2018-08-13T07:09:53.792Z,20.78
2018-08-13T07:12:22.308Z,20.89
2018-08-13T07:14:50.732Z,21.00
2018-08-13T07:17:19.321Z,21.07
2018-08-13T07:19:47.749Z,21.17
2018-08-13T07:22:16.394Z,21.31
2018-08-13T07:24:44.863Z,21.44
2018-08-13T07:27:13.364Z,21.53
2018-08-13T07:29:41.837Z,21.50
2018-08-13T07:32:10.323Z,21.33
2018-08-13T07:34:38.853Z,21.18
2018-08-13T07:37:07.270Z,20.98
2018-08-13T07:39:35.777Z,20.95
2018-08-13T07:42:04.736Z,20.85
2018-08-13T07:44:33.410Z,20.73
2018-08-13T07:47:02.077Z,20.64
2018-08-13T07:49:30.546Z,20.52
2018-08-13T07:51:58.985Z,20.48
2018-08-13T07:54:27.501Z,20.54
2018-08-13T07:56:55.952Z,20.54
2018-08-13T07:59:24.482Z,20.52
2018-08-13T08:01:52.941Z,20.62
2018-08-13T08:04:21.433Z,20.51
2018-08-13T08:06:49.909Z,20.59
2018-08-13T08:09:18.763Z,20.51
2018-08-13T08:11:47.148Z,20.40
2018-08-13T08:14:15.637Z,20.32
2018-08-13T08:16:44.257Z,20.23
2018-08-13T08:19:12.729Z,20.33
2018-08-13T08:21:41.218Z,20.43
2018-08-13T08:24:09.723Z,20.48
2018-08-13T08:26:38.285Z,20.43
2018-08-13T08:29:07.743Z,20.35
2018-08-13T08:31:36.225Z,20.36
2018-08-13T08:34:04.733Z,20.37
2018-08-13T08:36:33.201Z,20.45
2018-08-13T08:39:01.666Z,20.56
2018-08-13T08:41:30.141Z,20.55
2018-08-13T08:43:58.650Z,20.61
2018-08-13T08:46:27.090Z,20.59
2018-08-13T08:48:55.577Z,20.62
2018-08-13T08:51:24.097Z,20.64
2018-08-13T08:53:52.554Z,20.71
2018-08-13T08:56:22.222Z,20.64
2018-08-13T08:58:50.636Z,20.75
2018-08-13T09:01:19.257Z,20.86
2018-08-13T09:03:47.727Z,20.85
2018-08-13T09:06:16.142Z,20.80
2018-08-13T09:08:44.569Z,20.78
2018-08-13T09:11:13.120Z,20.69
2018-08-13T09:13:41.790Z,20.59
2018-08-13T09:16:10.284Z,20.63
2018-08-13T09:18:50.101Z,20.60
2018-08-13T09:21:28.274Z,20.68
2018-08-13T09:24:08.498Z,20.81
2018-08-13T09:26:48.354Z,20.90
2018-08-13T09:29:28.321Z,20.87
2018-08-13T09:32:24.469Z,20.86
2018-08-13T09:35:29.991Z,20.84
2018-08-13T09:37:58.762Z,20.81
2018-08-13T09:40:28.288Z,20.78
2018-08-13T09:42:56.825Z,20.73
2018-08-13T09:45:25.893Z,20.73
2018-08-13T09:47:54.457Z,20.78
2018-08-13T09:50:23.452Z,20.80
2018-08-13T09:52:52.240Z,20.90
2018-08-13T09:55:21.181Z,21.25
2018-08-13T09:57:50.322Z,21.77
2018-08-13T10:00:26.726Z,22.05
2018-08-13T10:02:55.263Z,22.57
2018-08-13T10:05:23.878Z,23.20
2018-08-13T10:07:52.413Z,23.42
2018-08-13T10:10:21.221Z,23.77
2018-08-13T10:12:49.845Z,24.21
2018-08-13T10:15:18.383Z,24.45
2018-08-13T10:17:47.002Z,24.59
2018-08-13T10:20:17.898Z,24.84
2018-08-13T10:22:46.812Z,25.24
2018-08-13T10:25:15.318Z,25.38
2018-08-13T10:27:43.986Z,25.81
2018-08-13T10:30:14.793Z,26.81
2018-08-13T10:32:43.272Z,27.41
2018-08-13T10:35:11.863Z,27.39
2018-08-13T10:37:41.078Z,27.17
2018-08-13T10:40:15.798Z,26.60
2018-08-13T10:42:44.593Z,26.58
2018-08-13T10:45:13.274Z,26.43
2018-08-13T10:47:41.851Z,26.50
2018-08-13T10:50:12.000Z,26.58
2018-08-13T10:52:40.983Z,26.56
2018-08-13T10:55:10.668Z,27.08
2018-08-13T10:57:39.243Z,27.34
2018-08-13T11:00:09.908Z,27.66
2018-08-13T11:02:38.694Z,27.61
2018-08-13T11:05:08.497Z,27.66
2018-08-13T11:07:37.164Z,27.46
2018-08-13T11:10:07.518Z,27.91
2018-08-13T11:12:36.518Z,28.49
2018-08-13T11:15:08.322Z,28.50
2018-08-13T11:17:36.853Z,28.58
2018-08-13T11:20:06.845Z,28.20
2018-08-13T11:22:35.337Z,28.44
2018-08-13T11:25:03.949Z,29.25
2018-08-13T11:27:32.491Z,29.66
2018-08-13T11:30:01.029Z,30.40
2018-08-13T11:32:29.664Z,31.08
2018-08-13T11:34:59.186Z,31.77
2018-08-13T11:37:27.761Z,32.82
2018-08-13T11:39:57.847Z,33.46
2018-08-13T11:42:26.661Z,33.63
2018-08-13T11:44:56.519Z,33.90
2018-08-13T11:47:26.041Z,33.17
2018-08-13T11:49:54.729Z,32.65
2018-08-13T11:52:23.386Z,31.67
2018-08-13T11:54:51.901Z,31.35
2018-08-13T11:57:20.705Z,30.78
2018-08-13T11:59:49.204Z,30.68
2018-08-13T12:02:17.610Z,31.90
2018-08-13T12:04:46.170Z,32.75
2018-08-13T12:07:14.603Z,33.88
2018-08-13T12:09:43.077Z,33.89
2018-08-13T12:12:11.586Z,34.13
2018-08-13T12:14:40.106Z,34.79
2018-08-13T12:17:08.679Z,33.94
2018-08-13T12:19:37.256Z,33.15
2018-08-13T12:22:05.791Z,33.57
2018-08-13T12:24:34.253Z,33.12
2018-08-13T12:27:02.665Z,32.18
2018-08-13T12:29:31.208Z,32.36
2018-08-13T12:31:59.745Z,31.82
2018-08-13T12:34:28.301Z,30.17
2018-08-13T12:37:02.058Z,29.21
2018-08-13T12:39:30.511Z,28.26
2018-08-13T12:41:59.046Z,27.32
2018-08-13T12:44:28.102Z,27.17
2018-08-13T12:46:56.502Z,27.11
2018-08-13T12:49:25.370Z,27.21
2018-08-13T12:51:54.026Z,28.46
2018-08-13T12:54:22.698Z,30.44
2018-08-13T12:56:51.213Z,29.68
2018-08-13T12:59:19.866Z,30.71
2018-08-13T13:01:48.374Z,30.91
2018-08-13T13:04:16.797Z,29.98
2018-08-13T13:06:45.274Z,29.46
2018-08-13T13:09:14.302Z,28.99
2018-08-13T13:11:42.789Z,28.60
2018-08-13T13:14:11.890Z,28.10
2018-08-13T13:16:40.293Z,27.30
2018-08-13T13:19:09.145Z,26.50
2018-08-13T13:21:38.011Z,26.37
2018-08-13T13:24:06.590Z,26.20
2018-08-13T13:26:35.794Z,26.20
2018-08-13T13:29:04.733Z,26.42
2018-08-13T13:31:33.364Z,26.62
2018-08-13T13:34:01.834Z,26.96
2018-08-13T13:36:34.537Z,27.17
2018-08-13T13:39:03.125Z,28.10
2018-08-13T13:41:31.687Z,28.01
2018-08-13T13:44:00.242Z,27.33
2018-08-13T13:46:28.846Z,29.40
2018-08-13T13:48:57.386Z,30.95
2018-08-13T13:51:26.031Z,31.12
2018-08-13T13:53:54.470Z,30.36
2018-08-13T13:56:22.974Z,28.39
2018-08-13T13:58:51.441Z,27.28
2018-08-13T14:01:20.258Z,26.80
2018-08-13T14:03:48.711Z,26.36
2018-08-13T14:06:17.226Z,27.04
2018-08-13T14:08:45.710Z,28.10
2018-08-13T14:11:14.202Z,28.23
2018-08-13T14:13:42.806Z,28.35
2018-08-13T14:16:11.460Z,32.02
2018-08-13T14:18:39.961Z,36.33
2018-08-13T14:21:08.597Z,36.70
2018-08-13T14:23:37.093Z,35.28
2018-08-13T14:26:05.602Z,32.90
2018-08-13T14:28:34.058Z,31.08
2018-08-13T14:31:02.519Z,30.30
2018-08-13T14:33:30.994Z,30.32
2018-08-13T14:35:59.517Z,32.88
2018-08-13T14:38:27.951Z,35.03
2018-08-13T14:40:56.620Z,32.92
2018-08-13T14:43:25.271Z,33.49
2018-08-13T14:45:53.757Z,34.08
2018-08-13T14:48:22.301Z,32.63
2018-08-13T14:50:50.777Z,32.00
2018-08-13T14:53:19.481Z,33.64
2018-08-13T14:55:47.931Z,37.19
2018-08-13T14:58:16.588Z,35.76
2018-08-13T15:00:45.113Z,34.71
2018-08-13T15:03:13.761Z,33.56
2018-08-13T15:05:42.485Z,36.44
2018-08-13T15:08:11.293Z,34.83
2018-08-13T15:10:39.809Z,37.45
2018-08-13T15:13:08.628Z,39.18
2018-08-13T15:15:37.069Z,36.06
2018-08-13T15:18:05.649Z,36.90
2018-08-13T15:20:34.170Z,39.26
2018-08-13T15:23:02.669Z,41.56
2018-08-13T15:25:31.233Z,43.26
2018-08-13T15:27:59.858Z,43.68
2018-08-13T15:30:28.656Z,42.51
2018-08-13T15:32:57.089Z,42.54
2018-08-13T15:35:25.897Z,43.55
2018-08-13T15:37:54.425Z,43.80
2018-08-13T15:40:22.997Z,40.54
2018-08-13T15:42:51.509Z,36.35
2018-08-13T15:45:23.531Z,32.80
2018-08-13T15:47:52.817Z,30.26
2018-08-13T15:50:22.662Z,29.38
2018-08-13T15:52:51.802Z,28.61
2018-08-13T15:55:20.809Z,28.20
2018-08-13T15:57:49.453Z,27.80
2018-08-13T16:00:26.090Z,27.36
2018-08-13T16:02:55.150Z,27.32
2018-08-13T16:05:23.922Z,27.39
2018-08-13T16:07:53.037Z,27.42
2018-08-13T16:10:21.880Z,30.41
2018-08-13T16:12:50.571Z,34.22
2018-08-13T16:15:19.780Z,38.13
2018-08-13T16:17:48.369Z,40.12
2018-08-13T16:20:18.551Z,40.40
2018-08-13T16:22:47.566Z,39.68
2018-08-13T16:25:16.546Z,37.22
2018-08-13T16:27:46.234Z,38.20
2018-08-13T16:30:23.356Z,37.51
2018-08-13T16:32:51.968Z,37.22
2018-08-13T16:35:22.132Z,36.75
2018-08-13T16:37:50.956Z,36.52
2018-08-13T16:40:20.897Z,36.50
2018-08-13T16:42:50.408Z,37.97
2018-08-13T16:45:24.092Z,33.44
2018-08-13T16:47:52.985Z,30.84
2018-08-13T16:50:27.525Z,29.01
2018-08-13T16:52:56.445Z,27.97
2018-08-13T16:55:25.627Z,27.34
2018-08-13T16:57:54.198Z,27.07
2018-08-13T17:00:25.041Z,27.19
2018-08-13T17:02:53.896Z,26.63
2018-08-13T17:05:22.553Z,26.28
2018-08-13T17:07:51.662Z,26.04
2018-08-13T17:10:22.722Z,25.52
2018-08-13T17:12:53.078Z,25.20
2018-08-13T17:15:22.349Z,25.05
2018-08-13T17:17:52.604Z,24.90
2018-08-13T17:20:54.163Z,24.73
2018-08-13T17:23:23.005Z,24.57
2018-08-13T17:25:51.549Z,24.40
2018-08-13T17:28:20.999Z,23.98
2018-08-13T17:30:49.446Z,22.92
2018-08-13T17:33:18.572Z,21.90
2018-08-13T17:35:47.001Z,21.28
2018-08-13T17:38:16.601Z,20.72
2018-08-13T17:40:45.160Z,20.44
2018-08-13T17:43:13.954Z,20.42
2018-08-13T17:45:42.214Z,20.12
2018-08-13T17:48:11.301Z,19.89
2018-08-13T17:50:39.957Z,19.70
2018-08-13T17:53:09.697Z,19.73
2018-08-13T17:55:38.193Z,19.85
2018-08-13T17:58:06.742Z,19.83
2018-08-13T18:00:35.230Z,19.73
2018-08-13T18:03:03.892Z,19.63
2018-08-13T18:05:32.413Z,19.70
2018-08-13T18:08:00.884Z,19.58
2018-08-13T18:10:34.760Z,19.66
2018-08-13T18:13:05.074Z,19.63
2018-08-13T18:15:33.677Z,19.58
2018-08-13T18:18:02.177Z,19.53
2018-08-13T18:20:30.741Z,19.59
2018-08-13T18:22:59.221Z,19.78
2018-08-13T18:25:27.697Z,19.80
2018-08-13T18:27:56.206Z,19.94
2018-08-13T18:30:26.234Z,19.96
2018-08-13T18:32:55.114Z,19.86
2018-08-13T18:35:23.892Z,19.85
2018-08-13T18:37:52.405Z,19.96
2018-08-13T18:40:23.469Z,19.91
2018-08-13T18:42:52.153Z,20.02
2018-08-13T18:45:21.052Z,20.09
2018-08-13T18:47:50.485Z,19.93
2018-08-13T18:50:21.042Z,19.88
2018-08-13T18:52:49.553Z,19.93
2018-08-13T18:55:19.793Z,19.99
2018-08-13T18:57:48.830Z,20.09
2018-08-13T19:00:20.564Z,20.08
2018-08-13T19:02:49.234Z,20.06
2018-08-13T19:05:19.154Z,19.94
2018-08-13T19:07:48.293Z,19.89
2018-08-13T19:10:17.752Z,19.90
2018-08-13T19:12:46.289Z,19.85
2018-08-13T19:15:17.734Z,19.83
2018-08-13T19:17:46.205Z,19.84
2018-08-13T19:20:15.279Z,19.94
2018-08-13T19:22:44.167Z,19.93
2018-08-13T19:25:14.985Z,19.91
2018-08-13T19:27:44.130Z,19.90
2018-08-13T19:30:14.781Z,19.88
2018-08-13T19:32:43.713Z,19.92
2018-08-13T19:35:12.277Z,19.90
2018-08-13T19:37:41.096Z,19.96
2018-08-13T19:40:13.283Z,19.95
2018-08-13T19:42:41.853Z,19.94
2018-08-13T19:45:12.014Z,19.91
2018-08-13T19:47:40.524Z,19.91
2018-08-13T19:52:33.522Z,19.85
2018-08-13T19:55:02.200Z,19.84
2018-08-13T19:57:30.798Z,19.85
2018-08-13T19:59:59.311Z,19.81
2018-08-13T20:02:27.791Z,19.83
2018-08-13T20:04:56.634Z,19.73
2018-08-13T20:07:25.230Z,19.71
2018-08-13T20:09:53.713Z,19.75
2018-08-13T20:12:22.287Z,19.70
2018-08-13T20:14:50.801Z,19.72
2018-08-13T20:17:19.613Z,19.69
2018-08-13T20:19:48.193Z,19.69
2018-08-13T20:22:16.689Z,19.63
2018-08-13T20:24:45.365Z,19.64
2018-08-13T20:27:14.023Z,19.62
2018-08-13T20:29:42.537Z,19.59
2018-08-13T20:32:11.490Z,19.58
2018-08-13T20:34:39.982Z,19.58
2018-08-13T20:37:08.529Z,19.52
2018-08-13T20:39:37.099Z,19.47
2018-08-13T20:42:05.599Z,19.46
2018-08-13T20:44:34.150Z,19.43
2018-08-13T20:47:02.618Z,19.44
2018-08-13T20:49:31.093Z,19.43
2018-08-13T20:51:59.589Z,19.42
2018-08-13T20:54:28.069Z,19.42
2018-08-13T20:56:56.601Z,19.40
2018-08-13T20:59:25.330Z,19.37
2018-08-13T21:01:53.799Z,19.37
2018-08-13T21:04:22.406Z,19.32
2018-08-13T21:06:50.896Z,19.29
2018-08-13T21:09:19.534Z,19.27
2018-08-13T21:11:48.071Z,19.28
2018-08-13T21:14:16.554Z,19.22
2018-08-13T21:16:45.010Z,19.18
2018-08-13T21:19:13.565Z,19.22
2018-08-13T21:21:42.150Z,19.17
2018-08-13T21:24:10.638Z,19.21
2018-08-13T21:26:39.108Z,19.23
2018-08-13T21:29:07.542Z,19.20
2018-08-13T21:31:36.122Z,19.24
2018-08-13T21:34:04.647Z,19.23
2018-08-13T21:36:33.078Z,19.21
2018-08-13T21:39:01.569Z,19.23
2018-08-13T21:41:29.990Z,19.20
2018-08-13T21:43:58.513Z,19.24
2018-08-13T21:46:26.970Z,19.22
2018-08-13T21:48:55.705Z,19.13
2018-08-13T21:51:24.312Z,19.07
2018-08-13T21:53:52.770Z,19.03
2018-08-13T21:56:21.366Z,18.99
2018-08-13T21:58:49.846Z,19.04
2018-08-13T22:01:23.499Z,19.08
2018-08-13T22:03:52.098Z,19.12
2018-08-13T22:06:20.831Z,19.10
2018-08-13T22:08:49.415Z,19.14
2018-08-13T22:11:18.379Z,19.15
2018-08-13T22:13:46.868Z,19.14
2018-08-13T22:16:15.321Z,19.21
2018-08-13T22:18:43.873Z,19.20
2018-08-13T22:21:12.396Z,19.21
2018-08-13T22:24:53.967Z,19.21
2018-08-13T22:27:22.537Z,19.17
2018-08-13T22:29:51.100Z,19.14
2018-08-13T22:32:19.848Z,19.02
2018-08-13T22:34:48.433Z,18.94
2018-08-13T22:37:16.893Z,18.90
2018-08-13T22:39:45.425Z,18.88
2018-08-13T22:42:13.905Z,18.89
2018-08-13T22:44:42.365Z,18.91
2018-08-13T22:47:10.868Z,18.91
2018-08-13T22:49:39.317Z,18.95
2018-08-13T22:52:07.831Z,19.01
2018-08-13T22:54:36.414Z,19.00
2018-08-13T22:57:04.864Z,19.00
2018-08-13T22:59:33.389Z,19.00
2018-08-13T23:02:01.926Z,19.06
2018-08-13T23:04:30.443Z,19.07
2018-08-13T23:06:58.941Z,19.05
2018-08-13T23:09:27.522Z,19.04
2018-08-13T23:11:56.037Z,19.02
2018-08-13T23:14:24.562Z,19.08
2018-08-13T23:16:53.037Z,19.06
2018-08-13T23:19:21.693Z,19.07
2018-08-13T23:21:50.173Z,19.10
2018-08-13T23:24:18.907Z,19.14
2018-08-13T23:26:47.377Z,19.15
2018-08-13T23:29:15.850Z,19.14
2018-08-13T23:31:44.285Z,19.13
2018-08-13T23:34:12.833Z,19.11
2018-08-13T23:36:41.269Z,19.12
2018-08-13T23:39:12.313Z,19.13
2018-08-13T23:41:41.177Z,19.11
2018-08-13T23:44:10.084Z,19.11
2018-08-13T23:46:38.670Z,19.11
2018-08-13T23:49:07.538Z,19.11
2018-08-13T23:51:36.330Z,19.08
2018-08-13T23:54:04.882Z,19.06
2018-08-13T23:56:33.345Z,19.03
2018-08-13T23:59:01.825Z,19.06
